Time;durP1;ratioP1;P1;durP2;ratioP2;P2;SDS_P1;SDS_P2;PMS_P1;PMS_P2;Temp;Humidity;BMP_temperature;BMP_pressure;BME280_temperature;BME280_humidity;BME280_pressure;Samples;Min_cycle;Max_cycle;Signal;HPM_P1;HPM_P2
2023/03/07 00:01:25;;;;;;;9.98;2.58;;;;;;;3.94;100.00;99006.41;6155128;23;20480;-94
2023/03/07 00:03:51;;;;;;;5.82;2.45;;;;;;;3.83;100.00;99011.28;6180118;23;20084;-93
2023/03/07 00:06:17;;;;;;;6.95;2.65;;;;;;;3.86;100.00;98995.81;6155100;23;20036;-92
2023/03/07 00:08:42;;;;;;;8.13;2.65;;;;;;;3.79;100.00;99008.06;6154987;23;20010;-94
2023/03/07 00:11:08;;;;;;;7.55;4.05;;;;;;;3.82;100.00;99009.63;6154942;23;20020;-93
2023/03/07 00:13:36;;;;;;;8.73;2.30;;;;;;;3.84;100.00;99008.63;6154919;23;20006;-93
2023/03/07 00:16:03;;;;;;;5.28;2.30;;;;;;;3.84;100.00;99011.19;6156319;23;20001;-92
2023/03/07 00:18:30;;;;;;;12.63;3.00;;;;;;;3.82;100.00;99007.88;6154798;23;20409;-93
2023/03/07 00:21:00;;;;;;;7.25;2.53;;;;;;;3.81;100.00;98985.84;6155817;23;20012;-93
2023/03/07 00:23:26;;;;;;;4.18;2.60;;;;;;;3.84;100.00;98995.06;6154522;23;19998;-93
2023/03/07 00:26:00;;;;;;;9.20;2.53;;;;;;;3.85;100.00;98989.88;6155154;23;20009;-92
2023/03/07 00:28:25;;;;;;;6.90;2.90;;;;;;;3.75;100.00;98970.84;6155274;23;20048;-94
2023/03/07 00:30:51;;;;;;;6.88;2.55;;;;;;;3.81;100.00;98980.72;6155280;23;20013;-93
2023/03/07 00:33:16;;;;;;;7.45;2.58;;;;;;;3.74;100.00;98984.50;6154993;23;20436;-93
2023/03/07 00:35:42;;;;;;;10.30;3.08;;;;;;;3.70;100.00;98972.00;6154715;23;20008;-92
2023/03/07 00:38:07;;;;;;;8.30;2.67;;;;;;;3.76;100.00;98977.59;6154591;23;19998;-93
2023/03/07 00:40:33;;;;;;;7.03;3.80;;;;;;;3.69;100.00;98950.75;6154730;23;20028;-92
2023/03/07 00:42:59;;;;;;;9.02;2.08;;;;;;;3.81;100.00;98975.63;6179629;23;20064;-93
2023/03/07 00:45:24;;;;;;;8.98;2.70;;;;;;;3.74;100.00;98955.63;6154595;23;20012;-93
2023/03/07 00:47:50;;;;;;;5.65;2.45;;;;;;;3.97;100.00;98980.72;6178923;23;20009;-93
2023/03/07 00:50:16;;;;;;;12.35;2.92;;;;;;;3.93;100.00;98958.84;6154330;23;20491;-93
2023/03/07 00:52:41;;;;;;;8.18;2.50;;;;;;;3.95;100.00;98976.59;6154874;23;20032;-94
2023/03/07 00:55:07;;;;;;;9.55;3.08;;;;;;;3.93;100.00;98968.22;6154551;23;20013;-92
2023/03/07 00:57:32;;;;;;;5.82;2.40;;;;;;;3.75;100.00;98945.31;6154727;23;20006;-93
2023/03/07 00:59:58;;;;;;;8.32;2.75;;;;;;;3.74;100.00;98938.56;6154227;23;20013;-93
2023/03/07 01:02:24;;;;;;;4.20;2.35;;;;;;;3.78;100.00;98945.19;6154755;23;20009;-93
2023/03/07 01:04:49;;;;;;;5.88;2.35;;;;;;;3.88;100.00;98957.41;6154652;23;20012;-94
2023/03/07 01:07:14;;;;;;;5.50;2.47;;;;;;;3.80;100.00;98953.56;6156257;23;20093;-93
2023/03/07 01:09:40;;;;;;;8.38;2.45;;;;;;;3.68;100.00;98944.00;6154683;23;20028;-93
2023/03/07 01:12:06;;;;;;;3.63;2.15;;;;;;;3.62;100.00;98923.94;6154948;23;20009;-93
2023/03/07 01:14:32;;;;;;;7.05;2.90;;;;;;;3.64;100.00;98924.69;6154677;23;20088;-93
2023/03/07 01:16:58;;;;;;;7.85;2.83;;;;;;;3.69;100.00;98935.47;6154569;23;20009;-93
2023/03/07 01:19:23;;;;;;;6.65;2.88;;;;;;;3.66;100.00;98935.63;6154327;23;20001;-93
2023/03/07 01:21:49;;;;;;;5.68;2.38;;;;;;;3.83;100.00;98943.19;6154510;23;20360;-94
2023/03/07 01:24:15;;;;;;;9.32;2.55;;;;;;;3.80;100.00;98945.91;6154708;23;20021;-92
2023/03/07 01:26:41;;;;;;;4.20;2.60;;;;;;;3.68;100.00;98923.59;6154872;23;20040;-94
2023/03/07 01:29:07;;;;;;;6.15;2.78;;;;;;;3.75;100.00;98940.22;6154705;23;20006;-93
2023/03/07 01:31:33;;;;;;;5.88;2.67;;;;;;;3.66;100.00;98920.31;6154608;23;20064;-93
2023/03/07 01:34:00;;;;;;;7.50;2.80;;;;;;;3.72;100.00;98932.72;6154044;23;20014;-93
2023/03/07 01:36:31;;;;;;;4.15;2.63;;;;;;;3.80;100.00;98928.06;6154376;23;20417;-93
2023/03/07 01:39:05;;;;;;;8.27;2.72;;;;;;;3.81;100.00;98924.59;6154521;23;19994;-93
2023/03/07 01:41:32;;;;;;;4.63;2.65;;;;;;;3.81;100.00;98929.69;6154292;23;20010;-93
2023/03/07 01:44:04;;;;;;;2.88;2.10;;;;;;;3.76;100.00;98929.13;6154231;23;20009;-93
2023/03/07 01:46:37;;;;;;;;;;;;;;;3.82;100.00;98926.22;6154382;23;20009;-93
2023/03/07 01:49:10;;;;;;;6.05;2.30;;;;;;;3.77;100.00;98922.28;6154272;23;19939;-93
2023/03/07 01:51:38;;;;;;;4.57;2.60;;;;;;;3.54;100.00;98886.06;6153793;23;20420;-93
2023/03/07 01:54:06;;;;;;;7.53;2.65;;;;;;;3.66;100.00;98910.13;6153950;23;20384;-93
2023/03/07 01:56:35;;;;;;;11.95;2.92;;;;;;;3.67;100.00;98891.34;6154030;23;20021;-93
2023/03/07 01:59:01;;;;;;;5.97;2.70;;;;;;;3.76;100.00;98910.44;6178815;23;20060;-93
2023/03/07 02:01:27;;;;;;;6.07;2.70;;;;;;;3.74;100.00;98907.97;6154112;23;20021;-93
2023/03/07 02:04:12;;;;;;;4.82;2.88;;;;;;;3.77;100.00;98917.19;6154603;23;20037;-93
2023/03/07 02:06:38;;;;;;;7.35;2.85;;;;;;;3.76;100.00;98924.03;6153900;23;20325;-92
2023/03/07 02:09:12;;;;;;;9.23;2.97;;;;;;;3.73;100.00;98901.22;6153990;23;20017;-92
2023/03/07 02:11:41;;;;;;;5.25;2.70;;;;;;;3.81;100.00;98914.38;6153871;23;20491;-92
2023/03/07 02:14:06;;;;;;;4.68;2.25;;;;;;;3.81;100.00;98918.66;6178389;23;20013;-91
2023/03/07 02:16:32;;;;;;;7.05;2.25;;;;;;;3.81;100.00;98918.66;6153630;23;20306;-92
2023/03/07 02:18:57;;;;;;;2.38;1.77;;;;;;;3.73;100.00;98896.13;6152665;23;20059;-93
2023/03/07 02:21:53;;;;;;;2.40;1.30;;;;;;;3.82;100.00;98916.00;6177595;23;20005;-93
2023/03/07 02:24:38;;;;;;;5.90;1.38;;;;;;;3.77;100.00;98922.28;6153675;23;20006;-92
2023/03/07 02:27:04;;;;;;;1.95;1.40;;;;;;;3.44;100.00;98905.31;6178564;23;20033;-93
2023/03/07 02:29:30;;;;;;;1.55;1.30;;;;;;;3.34;100.00;98920.28;6153538;23;20344;-92
2023/03/07 02:31:56;;;;;;;1.92;1.15;;;;;;;3.24;100.00;98931.84;6178331;23;20017;-93
2023/03/07 02:34:30;;;;;;;1.10;0.93;;;;;;;2.86;100.00;98913.41;6153425;23;20029;-92
2023/03/07 02:37:03;;;;;;;0.50;0.50;;;;;;;2.83;100.00;98924.59;6153510;23;20077;-92
2023/03/07 02:39:29;;;;;;;2.08;0.80;;;;;;;2.77;100.00;98919.78;6153581;23;20006;-93
2023/03/07 02:42:01;;;;;;;0.55;0.55;;;;;;;2.43;100.00;98905.34;6153183;23;20005;-93
2023/03/07 02:44:27;;;;;;;0.50;0.50;;;;;;;2.68;100.00;98915.16;6153346;23;20012;-92
2023/03/07 02:46:52;;;;;;;0.77;0.70;;;;;;;1.96;100.00;98895.72;6153283;23;20440;-93
2023/03/07 02:49:18;;;;;;;0.75;0.70;;;;;;;1.92;100.00;98926.38;6153051;23;20429;-92
2023/03/07 02:51:43;;;;;;;1.20;0.60;;;;;;;1.54;100.00;98923.06;6153580;23;20002;-92
2023/03/07 02:54:09;;;;;;;0.50;0.50;;;;;;;1.56;100.00;98934.00;6153418;23;20025;-92
2023/03/07 02:56:35;;;;;;;0.63;0.52;;;;;;;1.43;100.00;98912.53;6153485;23;20009;-93
2023/03/07 02:59:01;;;;;;;0.70;0.70;;;;;;;1.47;100.00;98925.03;6154839;23;20424;-92
2023/03/07 03:01:26;;;;;;;1.38;0.70;;;;;;;1.18;100.00;98922.97;6154730;23;20020;-91
2023/03/07 03:03:52;;;;;;;1.55;0.70;;;;;;;0.92;100.00;98932.50;6153695;23;20326;-93
2023/03/07 03:06:18;;;;;;;3.40;0.95;;;;;;;1.04;100.00;98931.97;6153482;23;20001;-93
2023/03/07 03:08:43;;;;;;;0.70;0.70;;;;;;;1.02;100.00;98922.78;6153381;23;20013;-94
2023/03/07 03:11:09;;;;;;;1.80;1.00;;;;;;;0.97;100.00;98917.88;6154785;23;20418;-92
2023/03/07 03:13:34;;;;;;;6.53;0.88;;;;;;;1.04;100.00;98921.00;6153352;23;20010;-93
2023/03/07 03:16:00;;;;;;;2.90;0.90;;;;;;;1.26;100.00;98934.41;6153668;23;20428;-93
2023/03/07 03:18:29;;;;;;;1.10;0.88;;;;;;;1.10;100.00;98925.84;6153090;23;20012;-93
2023/03/07 03:20:56;;;;;;;1.20;0.80;;;;;;;1.00;100.00;98924.56;6153566;23;20005;-93
2023/03/07 03:23:27;;;;;;;4.40;1.08;;;;;;;1.05;100.00;98927.75;6155040;23;20009;-91
2023/03/07 03:26:00;;;;;;;1.80;0.90;;;;;;;0.92;100.00;98921.53;6153604;23;20037;-91
2023/03/07 03:28:26;;;;;;;4.00;1.30;;;;;;;1.05;100.00;98928.56;6153363;23;20477;-92
2023/03/07 03:31:01;;;;;;;2.28;1.00;;;;;;;0.98;100.00;98947.50;6153633;23;20080;-93
2023/03/07 03:33:30;;;;;;;1.00;0.90;;;;;;;0.90;100.00;98946.97;6154837;23;20017;-93
2023/03/07 03:35:57;;;;;;;2.63;0.90;;;;;;;0.90;100.00;98951.22;6153499;23;20005;-91
2023/03/07 03:38:23;;;;;;;1.27;0.80;;;;;;;0.78;100.00;98939.88;6178294;23;20452;-92
2023/03/07 03:40:49;;;;;;;2.40;1.10;;;;;;;0.87;100.00;98949.66;6153583;23;20033;-92
2023/03/07 03:43:15;;;;;;;0.73;0.70;;;;;;;0.84;100.00;98955.69;6153232;23;20033;-92
2023/03/07 03:45:41;;;;;;;1.13;0.65;;;;;;;0.79;100.00;98960.13;6152912;23;20072;-92
2023/03/07 03:48:07;;;;;;;1.65;1.08;;;;;;;0.69;100.00;98925.84;6153050;23;20013;-93
2023/03/07 03:50:32;;;;;;;2.60;0.75;;;;;;;0.97;100.00;98947.56;6153447;23;20009;-92
2023/03/07 03:52:59;;;;;;;1.17;0.93;;;;;;;0.82;100.00;98911.75;6153182;23;20433;-94
2023/03/07 03:55:25;;;;;;;1.85;1.25;;;;;;;0.97;100.00;98937.38;6178266;23;20001;-92
2023/03/07 03:57:50;;;;;;;0.80;0.80;;;;;;;0.91;100.00;98935.94;6153252;23;20314;-92
2023/03/07 04:00:18;;;;;;;0.88;0.88;;;;;;;0.79;100.00;98937.28;6178229;23;20491;-93
2023/03/07 04:02:47;;;;;;;0.95;0.80;;;;;;;0.69;100.00;98920.78;6153035;23;20088;-92
2023/03/07 04:05:12;;;;;;;1.48;1.10;;;;;;;0.63;100.00;98926.09;6152907;23;20010;-92
2023/03/07 04:07:38;;;;;;;1.30;1.10;;;;;;;0.59;100.00;98909.34;6153059;23;20107;-93
2023/03/07 04:10:04;;;;;;;1.35;0.80;;;;;;;0.74;100.00;98926.50;6153215;23;20136;-91
2023/03/07 04:12:30;;;;;;;2.67;1.10;;;;;;;0.57;100.00;98922.09;6153004;23;20083;-92
2023/03/07 04:14:56;;;;;;;2.33;1.20;;;;;;;0.75;100.00;98930.66;6152754;23;20010;-92
2023/03/07 04:17:21;;;;;;;1.63;1.30;;;;;;;0.82;100.00;98916.81;6153847;23;20029;-91
2023/03/07 04:19:47;;;;;;;2.33;1.25;;;;;;;0.99;100.00;98933.91;6154908;23;20009;-93
2023/03/07 04:22:12;;;;;;;3.35;1.15;;;;;;;0.76;100.00;98922.19;6154676;23;20044;-91
2023/03/07 04:24:38;;;;;;;2.03;1.00;;;;;;;0.81;100.00;98897.41;6154536;23;20009;-91
2023/03/07 04:27:04;;;;;;;1.67;0.80;;;;;;;0.75;100.00;98900.19;6156308;23;20021;-91
2023/03/07 04:29:29;;;;;;;1.30;1.10;;;;;;;0.94;100.00;98912.13;6154786;23;20009;-92
2023/03/07 04:31:55;;;;;;;1.63;0.90;;;;;;;0.87;100.00;98918.34;6154732;23;20005;-92
2023/03/07 04:34:20;;;;;;;1.13;0.88;;;;;;;0.79;100.00;98922.03;6154380;23;20428;-91
2023/03/07 04:36:46;;;;;;;3.72;1.15;;;;;;;0.66;100.00;98905.69;6154314;23;20500;-92
2023/03/07 04:39:12;;;;;;;1.10;0.95;;;;;;;0.62;100.00;98911.75;6154684;23;20421;-91
2023/03/07 04:41:37;;;;;;;3.00;1.10;;;;;;;0.56;100.00;98905.22;6154431;23;20009;-92
2023/03/07 04:44:03;;;;;;;2.50;0.90;;;;;;;0.50;100.00;98909.72;6153543;23;20002;-93
2023/03/07 04:46:28;;;;;;;1.35;0.98;;;;;;;0.54;100.00;98929.03;6153535;23;19998;-92
2023/03/07 04:48:54;;;;;;;1.92;0.90;;;;;;;0.47;100.00;98925.91;6154103;23;20010;-92
2023/03/07 04:51:19;;;;;;;3.53;1.40;;;;;;;0.38;100.00;98904.25;6179080;23;20092;-92
2023/03/07 04:53:45;;;;;;;1.20;1.10;;;;;;;0.43;100.00;98909.97;6154293;23;20080;-91
2023/03/07 04:56:14;;;;;;;1.38;1.15;;;;;;;0.52;100.00;98913.03;6154439;23;20458;-92
2023/03/07 04:58:40;;;;;;;3.28;1.27;;;;;;;0.57;100.00;98917.03;6155072;23;20413;-92
2023/03/07 05:01:05;;;;;;;2.83;0.95;;;;;;;0.60;100.00;98901.66;6154189;23;20006;-92
2023/03/07 05:03:31;;;;;;;2.15;0.93;;;;;;;0.47;100.00;98889.56;6154677;23;20092;-92
2023/03/07 05:06:02;;;;;;;1.80;1.00;;;;;;;0.61;100.00;98902.47;6154177;23;19997;-91
2023/03/07 05:08:27;;;;;;;1.40;0.85;;;;;;;0.69;100.00;98907.25;6154328;23;20009;-92
2023/03/07 05:10:53;;;;;;;1.42;1.00;;;;;;;0.57;100.00;98901.78;6154333;23;20141;-92
2023/03/07 05:13:19;;;;;;;2.80;1.00;;;;;;;0.66;100.00;98910.75;6154625;23;20006;-91
2023/03/07 05:15:50;;;;;;;1.30;0.90;;;;;;;0.70;100.00;98924.94;6153340;23;20084;-92
2023/03/07 05:18:16;;;;;;;7.95;1.10;;;;;;;0.62;100.00;98907.50;6154145;23;20009;-92
2023/03/07 05:20:42;;;;;;;3.70;1.10;;;;;;;0.85;100.00;98916.72;6178937;23;20064;-91
2023/03/07 05:23:07;;;;;;;1.85;1.27;;;;;;;0.69;100.00;98905.53;6154002;23;20014;-92
2023/03/07 05:25:33;;;;;;;2.60;1.23;;;;;;;0.56;100.00;98895.06;6154396;23;20152;-92
2023/03/07 05:27:58;;;;;;;5.05;1.20;;;;;;;0.61;100.00;98902.47;6154003;23;20092;-92
2023/03/07 05:30:24;;;;;;;2.80;1.00;;;;;;;0.64;100.00;98904.91;6154084;23;20006;-91
2023/03/07 05:32:50;;;;;;;2.72;1.17;;;;;;;0.64;100.00;98907.44;6178684;23;20009;-92
2023/03/07 05:35:16;;;;;;;2.03;1.67;;;;;;;0.63;100.00;98900.69;6153882;23;20009;-91
2023/03/07 05:37:41;;;;;;;2.67;1.40;;;;;;;0.62;100.00;98892.28;6179133;23;20339;-92
2023/03/07 05:40:08;;;;;;;1.75;1.60;;;;;;;0.59;100.00;98900.03;6154083;23;20006;-93
2023/03/07 05:42:34;;;;;;;2.83;1.30;;;;;;;0.62;100.00;98901.59;6153592;23;20088;-93
2023/03/07 05:44:59;;;;;;;2.60;1.38;;;;;;;0.64;100.00;98897.28;6153312;23;20033;-92
2023/03/07 05:47:25;;;;;;;4.75;1.60;;;;;;;0.64;100.00;98907.44;6155425;23;19997;-92
2023/03/07 05:49:50;;;;;;;3.15;1.90;;;;;;;0.70;100.00;98922.41;6153711;23;20005;-91
2023/03/07 05:52:16;;;;;;;2.17;1.52;;;;;;;0.69;100.00;98905.53;6153633;23;20077;-92
2023/03/07 05:54:41;;;;;;;3.08;1.63;;;;;;;0.67;100.00;98909.03;6178322;23;20025;-92
2023/03/07 05:57:07;;;;;;;2.50;1.95;;;;;;;0.75;100.00;98925.59;6178637;23;20010;-91
2023/03/07 05:59:32;;;;;;;6.38;3.08;;;;;;;0.65;100.00;98916.69;6155087;23;20002;-92
2023/03/07 06:01:58;;;;;;;8.68;3.35;;;;;;;0.64;100.00;98908.28;6153739;23;20059;-92
2023/03/07 06:04:24;;;;;;;5.53;2.90;;;;;;;0.75;100.00;98925.59;6153622;23;20336;-93
2023/03/07 06:06:49;;;;;;;7.60;2.85;;;;;;;0.68;100.00;98914.03;6178219;23;20381;-92
2023/03/07 06:09:15;;;;;;;3.70;2.38;;;;;;;0.67;100.00;98899.69;6154961;23;20479;-93
2023/03/07 06:11:40;;;;;;;7.30;2.85;;;;;;;0.73;100.00;98914.69;6178176;23;20016;-92
2023/03/07 06:14:05;;;;;;;9.32;2.50;;;;;;;0.61;100.00;98899.94;6153040;23;20015;-93
2023/03/07 06:16:31;;;;;;;3.85;1.98;;;;;;;0.70;100.00;98906.34;6153988;23;20009;-93
2023/03/07 06:18:56;;;;;;;3.75;1.65;;;;;;;0.75;100.00;98905.28;6154610;23;20002;-93
2023/03/07 06:21:22;;;;;;;3.03;2.20;;;;;;;0.77;100.00;98908.56;6154590;23;20009;-93
2023/03/07 06:23:48;;;;;;;3.50;2.47;;;;;;;0.77;100.00;98903.50;6153649;23;20344;-93
2023/03/07 06:26:13;;;;;;;5.93;2.03;;;;;;;0.71;100.00;98905.47;6153715;23;20005;-93
2023/03/07 06:28:40;;;;;;;3.58;2.00;;;;;;;0.72;100.00;98892.72;6152515;23;20424;-93
2023/03/07 06:31:12;;;;;;;7.43;1.88;;;;;;;0.87;100.00;98910.72;6153300;23;20008;-94
2023/03/07 06:33:38;;;;;;;4.05;1.88;;;;;;;0.62;100.00;98884.66;6154735;23;20005;-93
2023/03/07 06:36:08;;;;;;;3.67;1.83;;;;;;;0.67;100.00;98902.22;6178464;23;20089;-93
2023/03/07 06:38:34;;;;;;;3.38;1.42;;;;;;;0.78;100.00;98909.41;6153144;23;20029;-92
2023/03/07 06:40:59;;;;;;;8.70;4.30;;;;;;;0.66;100.00;98905.69;6153145;23;20044;-92
2023/03/07 06:43:25;;;;;;;3.38;1.83;;;;;;;0.69;100.00;98892.84;6153061;23;20450;-91
2023/03/07 06:45:50;;;;;;;4.07;1.77;;;;;;;0.65;100.00;98898.94;6177404;23;20006;-93
2023/03/07 06:48:16;;;;;;;5.90;1.65;;;;;;;0.69;100.00;98904.72;6152909;23;20310;-92
2023/03/07 06:50:43;;;;;;;4.78;3.00;;;;;;;0.71;100.00;98913.94;6177592;23;20420;-93
2023/03/07 06:53:09;;;;;;;7.32;4.28;;;;;;;0.78;100.00;98906.84;6153177;23;20432;-93
2023/03/07 06:55:34;;;;;;;6.05;3.42;;;;;;;0.78;100.00;98905.16;6178083;23;20005;-92
2023/03/07 06:57:59;;;;;;;6.60;3.38;;;;;;;0.82;100.00;98906.66;6153183;23;20056;-91
2023/03/07 07:00:25;;;;;;;5.45;3.40;;;;;;;0.80;100.00;98923.69;6153522;23;20002;-93
2023/03/07 07:02:51;;;;;;;8.60;4.50;;;;;;;0.84;100.00;98904.88;6153146;23;20037;-93
2023/03/07 07:05:16;;;;;;;6.90;3.78;;;;;;;0.87;100.00;98911.56;6153353;23;20008;-92
2023/03/07 07:07:42;;;;;;;10.10;3.90;;;;;;;0.89;100.00;98919.13;6153114;23;20086;-94
2023/03/07 07:10:08;;;;;;;6.50;3.72;;;;;;;0.83;100.00;98915.13;6153882;23;20061;-93
2023/03/07 07:12:34;;;;;;;12.10;5.15;;;;;;;0.89;100.00;98916.56;6178685;23;20499;-93
2023/03/07 07:15:01;;;;;;;7.72;4.28;;;;;;;0.84;100.00;98914.22;6152799;23;20049;-93
2023/03/07 07:17:28;;;;;;;7.70;4.30;;;;;;;0.98;100.00;98918.75;6154086;23;20005;-94
2023/03/07 07:19:53;;;;;;;7.78;4.57;;;;;;;1.00;100.00;98919.47;6153319;23;20001;-93
2023/03/07 07:22:19;;;;;;;5.45;3.08;;;;;;;0.93;100.00;98907.94;6155186;23;20094;-94
2023/03/07 07:24:45;;;;;;;8.23;3.17;;;;;;;1.09;100.00;98919.09;6151650;23;20048;-94
2023/03/07 07:27:10;;;;;;;4.93;2.60;;;;;;;1.13;100.00;98915.53;6152452;23;20014;-93
2023/03/07 07:29:36;;;;;;;4.15;2.30;;;;;;;1.08;100.00;98912.38;6152493;23;20048;-94
2023/03/07 07:32:01;;;;;;;5.88;2.75;;;;;;;1.14;100.00;98931.59;6152493;23;20252;-93
2023/03/07 07:34:27;;;;;;;6.25;2.47;;;;;;;1.14;100.00;98929.06;6176790;23;20413;-93
2023/03/07 07:36:52;;;;;;;4.68;2.00;;;;;;;1.18;100.00;98918.69;6153661;23;20001;-93
2023/03/07 07:39:18;;;;;;;8.02;2.45;;;;;;;1.25;100.00;98922.63;6152243;23;20041;-95
2023/03/07 07:41:45;;;;;;;5.07;2.67;;;;;;;1.44;100.00;98939.59;6152575;23;20006;-94
2023/03/07 07:44:10;;;;;;;7.50;3.40;;;;;;;1.39;100.00;98938.97;6176874;23;20350;-95
2023/03/07 07:46:36;;;;;;;7.22;3.83;;;;;;;1.46;100.00;98941.19;6152351;23;20029;-94
2023/03/07 07:49:02;;;;;;;5.30;3.28;;;;;;;1.44;100.00;98922.63;6152486;23;20064;-94
2023/03/07 07:51:27;;;;;;;6.85;3.00;;;;;;;1.68;100.00;98938.53;6153680;23;20017;-94
2023/03/07 07:53:53;;;;;;;7.93;3.53;;;;;;;1.62;100.00;98918.44;6154244;23;20041;-94
2023/03/07 07:56:18;;;;;;;5.50;2.97;;;;;;;1.71;100.00;98930.75;6154035;23;20008;-94
2023/03/07 07:58:44;;;;;;;7.28;2.75;;;;;;;1.84;100.00;98930.19;6153931;23;20325;-94
2023/03/07 08:01:22;;;;;;;7.20;3.13;;;;;;;2.01;100.00;98948.03;6154029;23;20010;-94
2023/03/07 08:03:47;;;;;;;9.73;4.10;;;;;;;1.95;100.00;98925.41;6154199;23;20006;-94
2023/03/07 08:06:21;;;;;;;7.97;3.55;;;;;;;2.03;100.00;98932.72;6154126;23;20056;-95
2023/03/07 08:08:47;;;;;;;9.20;4.88;;;;;;;2.40;100.00;98954.69;6154049;23;20017;-93
2023/03/07 08:11:16;;;;;;;8.82;3.65;;;;;;;2.42;100.00;98955.47;6153629;23;20015;-93
2023/03/07 08:13:42;;;;;;;9.55;4.13;;;;;;;2.57;100.00;98941.97;6153754;23;20013;-92
2023/03/07 08:16:13;;;;;;;8.82;3.92;;;;;;;2.88;100.00;98948.13;6178810;23;20013;-92
2023/03/07 08:18:40;;;;;;;6.93;3.92;;;;;;;2.91;100.00;98922.47;6153842;23;20002;-92
2023/03/07 08:21:07;;;;;;;8.02;3.08;;;;;;;2.98;100.00;98944.19;6153488;23;20428;-92
2023/03/07 08:23:33;;;;;;;9.77;3.75;;;;;;;2.97;100.00;98927.25;6152960;23;20012;-91
2023/03/07 08:26:04;;;;;;;6.18;2.70;;;;;;;3.28;100.00;98935.88;6152748;23;20001;-93
2023/03/07 08:28:29;;;;;;;3.45;2.33;;;;;;;3.37;100.00;98937.97;6153290;23;20463;-91
2023/03/07 08:30:55;;;;;;;3.92;2.10;;;;;;;3.58;100.00;98950.50;6152723;23;20001;-92
2023/03/07 08:33:20;;;;;;;7.90;2.55;;;;;;;3.55;100.00;98946.38;6154265;23;20005;-92
2023/03/07 08:35:46;;;;;;;7.03;2.45;;;;;;;3.68;100.00;98938.91;6154232;23;20005;-92
2023/03/07 08:38:11;;;;;;;3.83;1.55;;;;;;;3.56;100.00;98952.28;6152787;23;20056;-92
2023/03/07 08:40:37;;;;;;;4.65;1.63;;;;;;;3.93;100.00;98948.63;6178178;23;20021;-93
2023/03/07 08:43:02;;;;;;;3.85;1.60;;;;;;;4.10;100.00;98950.28;6177542;23;20009;-92
2023/03/07 08:45:28;;;;;;;2.53;1.63;;;;;;;4.17;100.00;98961.78;6153726;23;20343;-91
2023/03/07 08:47:55;;;;;;;7.35;0.90;;;;;;;3.93;100.00;98945.25;6155581;23;20383;-93
2023/03/07 08:50:22;;;;;;;3.33;1.33;;;;;;;3.84;100.00;98955.03;6156838;23;20080;-93
2023/03/07 08:52:47;;;;;;;3.10;1.25;;;;;;;4.00;100.00;98944.00;6154524;23;20583;-93
2023/03/07 08:55:13;;;;;;;3.63;1.20;;;;;;;3.99;100.00;98958.50;6154651;23;20029;-93
2023/03/07 08:57:38;;;;;;;2.17;1.02;;;;;;;3.52;100.00;98956.75;6154758;23;20017;-94
2023/03/07 09:00:07;;;;;;;1.08;0.75;;;;;;;3.64;100.00;98948.44;6154614;23;20005;-93
2023/03/07 09:02:33;;;;;;;2.55;0.70;;;;;;;3.66;100.00;98966.25;6154116;23;20001;-94
2023/03/07 09:04:58;;;;;;;1.48;0.93;;;;;;;3.62;100.00;98952.00;6154266;23;20012;-94
2023/03/07 09:07:24;;;;;;;6.13;1.42;;;;;;;3.58;100.00;98951.31;6154363;23;20016;-92
2023/03/07 09:09:49;;;;;;;1.55;1.13;;;;;;;3.59;100.00;98970.03;6155081;23;20069;-95
2023/03/07 09:12:15;;;;;;;4.50;2.35;;;;;;;3.43;100.00;98957.22;6156879;23;20010;-96
2023/03/07 09:14:40;;;;;;;7.05;1.80;;;;;;;3.39;100.00;98959.13;6153983;23;19997;-94
2023/03/07 09:17:06;;;;;;;3.20;1.08;;;;;;;3.41;100.00;98962.41;6153973;23;20093;-92
2023/03/07 09:19:31;;;;;;;4.53;1.30;;;;;;;3.39;100.00;98964.22;6153856;23;20036;-92
2023/03/07 09:21:57;;;;;;;5.10;1.60;;;;;;;3.47;100.00;98970.66;6153726;23;20447;-91
2023/03/07 09:24:22;;;;;;;4.93;2.05;;;;;;;3.60;100.00;98969.91;6153490;23;20384;-92
2023/03/07 09:26:48;;;;;;;3.50;1.80;;;;;;;3.47;100.00;98945.97;6178754;23;20429;-91
2023/03/07 09:29:13;;;;;;;7.75;2.55;;;;;;;3.58;100.00;98955.59;6155421;23;20001;-92
2023/03/07 09:31:40;;;;;;;7.00;2.15;;;;;;;3.90;100.00;98958.97;6155358;23;20001;-93
2023/03/07 09:34:05;;;;;;;7.20;2.10;;;;;;;3.93;100.00;98956.28;6155307;23;20012;-92
2023/03/07 09:36:31;;;;;;;4.90;2.85;;;;;;;3.99;100.00;98967.88;6155265;23;20076;-93
2023/03/07 09:38:56;;;;;;;2.72;2.25;;;;;;;4.10;100.00;98970.69;6153608;23;20012;-91
2023/03/07 09:41:41;;;;;;;7.40;2.70;;;;;;;3.97;100.00;98980.72;6178977;23;20332;-92
2023/03/07 09:44:18;;;;;;;7.13;2.92;;;;;;;4.26;100.00;98980.88;6153307;23;20033;-92
2023/03/07 09:47:01;;;;;;;5.90;2.88;;;;;;;4.51;100.00;98975.22;6153605;23;20009;-92
2023/03/07 09:49:45;;;;;;;4.68;2.60;;;;;;;4.84;100.00;98982.72;6153447;23;20009;-92
2023/03/07 09:52:15;;;;;;;4.65;2.20;;;;;;;5.05;100.00;98973.00;6155250;23;20009;-92
2023/03/07 09:55:00;;;;;;;6.75;2.55;;;;;;;5.39;100.00;98976.16;6153597;23;20044;-92
2023/03/07 09:57:32;;;;;;;3.38;1.80;;;;;;;5.67;94.79;98961.69;6153616;23;20006;-93
2023/03/07 10:00:02;;;;;;;6.15;1.58;;;;;;;6.01;94.47;98960.44;6155091;23;20413;-92
2023/03/07 10:02:35;;;;;;;2.38;1.10;;;;;;;6.36;92.56;98975.34;6153430;23;20463;-92
2023/03/07 10:05:12;;;;;;;3.88;1.10;;;;;;;6.72;87.32;98966.22;6153470;23;20025;-92
2023/03/07 10:07:38;;;;;;;4.43;1.00;;;;;;;7.23;85.71;98954.22;6153189;23;20012;-92
2023/03/07 10:10:09;;;;;;;2.67;0.93;;;;;;;7.67;86.00;98955.50;6153201;23;20288;-92
2023/03/07 10:12:47;;;;;;;2.72;1.08;;;;;;;8.05;80.19;98959.72;6153418;23;20006;-92
2023/03/07 10:15:34;;;;;;;2.00;1.13;;;;;;;7.98;78.95;98953.38;6155049;23;20001;-93
2023/03/07 10:18:24;;;;;;;6.57;1.42;;;;;;;8.48;81.30;98959.25;6153356;23;20006;-93
2023/03/07 10:20:51;;;;;;;3.20;1.25;;;;;;;9.24;73.98;98969.94;6154924;23;20036;-92
2023/03/07 10:23:54;;;;;;;1.63;0.80;;;;;;;9.40;72.87;98969.63;6153127;23;20009;-92
2023/03/07 10:26:32;;;;;;;4.03;0.68;;;;;;;9.18;75.23;98976.38;6153570;23;20069;-93
2023/03/07 10:29:12;;;;;;;1.58;0.80;;;;;;;8.59;69.00;98957.66;6153786;23;20079;-93
2023/03/07 10:31:41;;;;;;;1.83;0.90;;;;;;;8.55;73.83;98972.47;6153254;23;20344;-93
2023/03/07 10:34:20;;;;;;;2.60;0.73;;;;;;;8.37;71.33;98979.75;6153255;23;20016;-92
2023/03/07 10:36:49;;;;;;;1.98;1.10;;;;;;;8.73;72.56;98966.00;6153388;23;20384;-91
2023/03/07 10:39:42;;;;;;;1.60;0.90;;;;;;;9.18;71.83;98971.22;6153345;23;20012;-92
2023/03/07 10:42:12;;;;;;;3.33;0.70;;;;;;;9.19;68.93;98970.31;6177966;23;20010;-93
2023/03/07 10:44:38;;;;;;;1.92;0.65;;;;;;;9.19;69.95;98972.03;6153427;23;20292;-93
2023/03/07 10:47:04;;;;;;;3.65;0.70;;;;;;;8.80;68.85;98956.06;6178093;23;20006;-93
2023/03/07 10:49:42;;;;;;;3.22;0.57;;;;;;;8.85;72.11;98972.00;6153430;23;20006;-92
2023/03/07 10:52:45;;;;;;;1.85;0.60;;;;;;;8.64;70.34;98991.59;6153271;23;20448;-93
2023/03/07 10:55:29;;;;;;;2.67;1.80;;;;;;;8.49;72.12;98998.66;6148197;23;20032;-92
2023/03/07 10:58:19;;;;;;;1.83;0.47;;;;;;;8.40;72.17;98994.97;6153453;23;20052;-91
2023/03/07 11:00:59;;;;;;;1.85;0.70;;;;;;;8.34;75.38;98992.84;6153378;23;20381;-92
2023/03/07 11:03:30;;;;;;;4.45;0.90;;;;;;;8.59;72.56;98980.81;6153497;23;20447;-94
2023/03/07 11:05:56;;;;;;;2.08;0.73;;;;;;;8.84;69.82;98978.06;6154697;23;20420;-93
2023/03/07 11:08:31;;;;;;;4.40;0.85;;;;;;;9.38;68.35;98995.47;6153039;23;20436;-93
2023/03/07 11:10:59;;;;;;;1.23;0.80;;;;;;;9.54;70.11;99008.03;6153250;23;20006;-93
2023/03/07 11:13:26;;;;;;;4.82;0.80;;;;;;;9.58;68.40;99000.88;6152948;23;20384;-93
2023/03/07 11:16:08;;;;;;;0.90;0.45;;;;;;;9.64;67.53;98988.34;6153626;23;20314;-93
2023/03/07 11:18:40;;;;;;;2.13;0.60;;;;;;;10.07;65.52;98989.31;6155332;23;20002;-93
2023/03/07 11:21:05;;;;;;;;;;;;;;;10.30;63.91;98997.06;6153876;23;20025;-94
2023/03/07 11:23:31;;;;;;;2.22;0.90;;;;;;;10.56;62.12;98998.38;6154689;23;19915;-94
2023/03/07 11:26:14;;;;;;;3.03;0.65;;;;;;;10.43;63.05;99005.44;6154187;23;20005;-93
2023/03/07 11:28:40;;;;;;;1.52;0.60;;;;;;;9.41;63.31;99008.13;6156698;23;20441;-92
2023/03/07 11:31:30;;;;;;;6.07;1.23;;;;;;;10.00;64.87;99006.25;6155428;23;20009;-94
2023/03/07 11:34:21;;;;;;;1.88;0.93;;;;;;;9.59;66.09;98999.94;6155374;23;20044;-93
2023/03/07 11:36:53;;;;;;;6.82;1.00;;;;;;;10.15;65.35;98996.50;6155533;23;20009;-93
2023/03/07 11:39:57;;;;;;;3.92;1.00;;;;;;;10.24;63.70;99001.75;6155395;23;20025;-92